createdAt,value
2019-02-22T00:01:45.916Z,98294.72
2019-02-22T00:04:15.655Z,98288.66
2019-02-22T00:06:45.509Z,98288.63
2019-02-22T00:09:15.345Z,98277.35
2019-02-22T00:11:45.128Z,98277.86
2019-02-22T00:14:15.109Z,98274.00
2019-02-22T00:16:44.900Z,98284.85
2019-02-22T00:19:14.734Z,98280.95
2019-02-22T00:21:44.543Z,98285.28
2019-02-22T00:24:14.378Z,98280.08
2019-02-22T00:26:44.206Z,98280.91
2019-02-22T00:29:13.914Z,98283.09
2019-02-22T00:31:43.842Z,98283.53
2019-02-22T00:34:13.704Z,98280.89
2019-02-22T00:36:43.648Z,98286.98
2019-02-22T00:39:13.579Z,98285.61
2019-02-22T00:41:43.492Z,98285.61
2019-02-22T00:44:13.339Z,98284.73
2019-02-22T00:46:43.158Z,98283.02
2019-02-22T00:49:13.351Z,98273.06
2019-02-22T00:51:43.183Z,98284.38
2019-02-22T00:54:12.900Z,98273.49
2019-02-22T00:56:42.623Z,98276.58
2019-02-22T00:59:12.512Z,98274.86
2019-02-22T01:01:42.299Z,98271.02
2019-02-22T01:04:12.090Z,98277.50
2019-02-22T01:06:41.956Z,98266.67
2019-02-22T01:09:11.676Z,98270.14
2019-02-22T01:11:41.482Z,98261.88
2019-02-22T01:14:11.742Z,98258.81
2019-02-22T01:16:41.533Z,98250.56
2019-02-22T01:19:11.338Z,98247.97
2019-02-22T01:21:41.184Z,98250.13
2019-02-22T01:24:10.995Z,98245.81
2019-02-22T01:26:40.832Z,98249.69
2019-02-22T01:29:10.655Z,98249.69
2019-02-22T01:31:40.411Z,98237.12
2019-02-22T01:34:10.188Z,98240.63
2019-02-22T01:36:40.004Z,98240.61
2019-02-22T01:39:09.771Z,98231.52
2019-02-22T01:41:39.531Z,98240.22
2019-02-22T01:44:15.255Z,98230.70
2019-02-22T01:46:45.073Z,98216.39
2019-02-22T01:49:14.835Z,98220.28
2019-02-22T01:51:44.619Z,98214.22
2019-02-22T01:54:14.484Z,98212.07
2019-02-22T01:56:44.262Z,98210.33
2019-02-22T01:59:14.421Z,98202.95
2019-02-22T02:01:44.311Z,98196.45
2019-02-22T02:04:14.009Z,98194.77
2019-02-22T02:06:43.843Z,98189.53
2019-02-22T02:09:13.635Z,98205.17
2019-02-22T02:11:43.417Z,98190.88
2019-02-22T02:14:13.243Z,98189.14
2019-02-22T02:16:43.028Z,98193.91
2019-02-22T02:19:12.857Z,98196.06
2019-02-22T02:21:42.689Z,98184.38
2019-02-22T02:24:12.486Z,98197.34
2019-02-22T02:26:42.275Z,98203.88
2019-02-22T02:29:12.156Z,98194.33
2019-02-22T02:31:42.006Z,98194.27
2019-02-22T02:34:11.815Z,98191.22
2019-02-22T02:36:41.672Z,98199.47
2019-02-22T02:39:11.469Z,98198.60
2019-02-22T02:41:41.258Z,98191.68
2019-02-22T02:44:11.175Z,98177.37
2019-02-22T02:46:40.994Z,98177.39
2019-02-22T02:49:10.862Z,98181.75
2019-02-22T02:51:40.654Z,98167.88
2019-02-22T02:54:10.444Z,98169.19
2019-02-22T02:56:40.292Z,98175.72
2019-02-22T02:59:10.096Z,98172.23
2019-02-22T03:01:39.927Z,98160.11
2019-02-22T03:04:09.854Z,98151.44
2019-02-22T03:06:41.242Z,98143.20
2019-02-22T03:09:11.037Z,98131.52
2019-02-22T03:11:40.859Z,98122.41
2019-02-22T03:14:10.699Z,98114.18
2019-02-22T03:16:40.496Z,98112.43
2019-02-22T03:19:10.258Z,98099.88
2019-02-22T03:21:40.100Z,98099.84
2019-02-22T03:24:09.923Z,98102.00
2019-02-22T03:26:39.845Z,98094.17
2019-02-22T03:29:09.626Z,98123.23
2019-02-22T03:31:42.130Z,98136.69
2019-02-22T03:34:11.918Z,98142.73
2019-02-22T03:36:41.736Z,98141.03
2019-02-22T03:39:11.547Z,98149.25
2019-02-22T03:41:41.391Z,98131.05
2019-02-22T03:44:11.207Z,98137.14
2019-02-22T03:46:40.975Z,98134.12
2019-02-22T03:49:10.867Z,98137.14
2019-02-22T03:51:40.641Z,98128.90
2019-02-22T03:54:10.448Z,98128.92
2019-02-22T03:56:40.251Z,98127.63
2019-02-22T03:59:10.123Z,98124.55
2019-02-22T04:01:39.973Z,98115.02
2019-02-22T04:04:09.755Z,98115.47
2019-02-22T04:06:39.503Z,98116.76
2019-02-22T04:09:12.124Z,98111.14
2019-02-22T04:11:45.744Z,98112.02
2019-02-22T04:14:13.505Z,98108.98
2019-02-22T04:16:43.298Z,98106.38
2019-02-22T04:19:13.004Z,98120.66
2019-02-22T04:21:42.832Z,98113.77
2019-02-22T04:24:12.648Z,98098.16
2019-02-22T04:26:42.485Z,98100.75
2019-02-22T04:29:12.303Z,98099.47
2019-02-22T04:31:42.061Z,98099.45
2019-02-22T04:34:11.970Z,98091.23
2019-02-22T04:36:41.778Z,98097.27
2019-02-22T04:39:11.531Z,98092.94
2019-02-22T04:41:41.365Z,98099.44
2019-02-22T04:44:11.183Z,98102.05
2019-02-22T04:46:41.008Z,98099.89
2019-02-22T04:49:10.736Z,98093.81
2019-02-22T04:51:40.541Z,98095.98
2019-02-22T04:54:10.375Z,98099.03
2019-02-22T04:56:40.170Z,98105.50
2019-02-22T04:59:09.954Z,98102.49
2019-02-22T05:01:39.844Z,98111.57
2019-02-22T05:04:09.653Z,98118.51
2019-02-22T05:06:39.535Z,98120.67
2019-02-22T05:09:09.326Z,97982.55
2019-02-22T05:11:39.092Z,98128.91
2019-02-22T05:14:08.903Z,98131.93
2019-02-22T05:16:38.734Z,98121.98
2019-02-22T05:19:08.565Z,98130.22
2019-02-22T05:21:38.415Z,98137.56
2019-02-22T05:24:08.197Z,98149.70
2019-02-22T05:26:38.043Z,98177.86
2019-02-22T05:29:07.874Z,98186.96
2019-02-22T05:31:37.618Z,98183.94
2019-02-22T05:34:07.473Z,98184.78
2019-02-22T05:36:37.239Z,98188.26
2019-02-22T05:39:18.483Z,98182.64
2019-02-22T05:41:38.582Z,98188.70
2019-02-22T05:44:08.392Z,98193.45
2019-02-22T05:46:38.228Z,98193.91
2019-02-22T05:49:08.057Z,98206.03
2019-02-22T05:51:37.882Z,98201.31
2019-02-22T05:54:07.679Z,98203.91
2019-02-22T05:56:37.483Z,98189.92
2019-02-22T05:59:07.313Z,98183.22
2019-02-22T06:01:37.136Z,98187.55
2019-02-22T06:04:06.956Z,98202.45
2019-02-22T06:06:36.777Z,98209.80
2019-02-22T06:09:06.627Z,98210.31
2019-02-22T06:11:36.495Z,98211.78
2019-02-22T06:14:06.385Z,98207.05
2019-02-22T06:16:37.760Z,98215.75
2019-02-22T06:19:07.554Z,98206.14
2019-02-22T06:21:37.312Z,98202.32
2019-02-22T06:24:07.150Z,98210.69
2019-02-22T06:26:36.966Z,98196.54
2019-02-22T06:29:06.768Z,98195.78
2019-02-22T06:31:36.501Z,98182.81
2019-02-22T06:34:06.384Z,98191.17
2019-02-22T06:36:36.166Z,98213.40
2019-02-22T06:39:06.442Z,98223.88
2019-02-22T06:41:36.237Z,98210.76
2019-02-22T06:44:06.068Z,98229.84
2019-02-22T06:46:35.942Z,98228.19
2019-02-22T06:49:05.741Z,98243.05
2019-02-22T06:51:35.529Z,98245.11
2019-02-22T06:54:05.365Z,98244.24
2019-02-22T06:56:35.112Z,98236.88
2019-02-22T06:59:04.972Z,98230.70
2019-02-22T07:01:34.708Z,98223.03
2019-02-22T07:04:04.507Z,98229.98
2019-02-22T07:06:34.370Z,98230.97
2019-02-22T07:09:05.197Z,98228.44
2019-02-22T07:11:37.874Z,98224.44
2019-02-22T07:14:07.936Z,98224.36
2019-02-22T07:16:37.660Z,98227.84
2019-02-22T07:19:07.517Z,98222.69
2019-02-22T07:21:51.561Z,98229.86
2019-02-22T07:24:08.788Z,98236.78
2019-02-22T07:26:38.659Z,98248.56
2019-02-22T07:29:08.456Z,98256.00
2019-02-22T07:31:38.252Z,98257.18
2019-02-22T07:34:08.045Z,98258.48
2019-02-22T07:36:38.818Z,98261.47
2019-02-22T07:39:08.597Z,98264.97
2019-02-22T07:41:38.407Z,98256.75
2019-02-22T07:44:08.436Z,98256.66
2019-02-22T07:46:38.250Z,98257.18
2019-02-22T07:49:08.026Z,98261.62
2019-02-22T07:51:37.861Z,98253.44
2019-02-22T07:54:07.660Z,98249.17
2019-02-22T07:56:37.393Z,98252.67
2019-02-22T07:59:07.197Z,98255.36
2019-02-22T08:01:46.969Z,98260.75
2019-02-22T08:04:08.560Z,98262.33
2019-02-22T08:06:38.470Z,98271.81
2019-02-22T08:09:08.292Z,98274.23
2019-02-22T08:11:38.116Z,98279.47
2019-02-22T08:14:08.094Z,98287.59
2019-02-22T08:16:37.838Z,98292.67
2019-02-22T08:19:07.559Z,98296.97
2019-02-22T08:21:37.393Z,98300.09
2019-02-22T08:24:07.121Z,98304.69
2019-02-22T08:26:36.975Z,98305.45
2019-02-22T08:29:06.751Z,98310.52
2019-02-22T08:31:36.935Z,98302.86
2019-02-22T08:34:06.950Z,98298.13
2019-02-22T08:36:36.770Z,98291.47
2019-02-22T08:39:06.556Z,98289.59
2019-02-22T08:41:36.343Z,98283.95
2019-02-22T08:44:06.084Z,98278.05
2019-02-22T08:46:35.921Z,98276.86
2019-02-22T08:49:05.705Z,98282.03
2019-02-22T08:51:35.522Z,98282.31
2019-02-22T08:54:05.364Z,98286.62
2019-02-22T08:56:35.071Z,98289.78
2019-02-22T08:59:04.881Z,98287.42
2019-02-22T09:01:35.657Z,98296.83
2019-02-22T09:04:05.710Z,98296.31
2019-02-22T09:06:35.538Z,98286.00
2019-02-22T09:09:05.855Z,98293.79
2019-02-22T09:11:35.594Z,98286.41
2019-02-22T09:14:05.437Z,98287.60
2019-02-22T09:16:35.329Z,98295.84
2019-02-22T09:19:05.159Z,98299.08
2019-02-22T09:21:35.054Z,98304.88
2019-02-22T09:24:05.920Z,98314.44
2019-02-22T09:26:35.626Z,98315.08
2019-02-22T09:29:05.501Z,98304.50
2019-02-22T09:31:35.328Z,98315.33
2019-02-22T09:34:05.136Z,98321.08
2019-02-22T09:36:34.968Z,98320.12
2019-02-22T09:39:06.258Z,98316.62
2019-02-22T09:41:36.196Z,98314.77
2019-02-22T09:44:06.061Z,98320.38
2019-02-22T09:46:35.843Z,98323.53
2019-02-22T09:49:05.676Z,98321.00
2019-02-22T09:51:35.487Z,98326.70
2019-02-22T09:54:05.295Z,98330.13
2019-02-22T09:56:35.131Z,98334.95
2019-02-22T09:59:04.937Z,98327.69
2019-02-22T10:01:34.697Z,98329.61
2019-02-22T10:04:04.533Z,98329.04
2019-02-22T10:06:34.324Z,98327.11
2019-02-22T10:09:05.187Z,98325.09
2019-02-22T10:11:36.568Z,98329.65
2019-02-22T10:14:07.162Z,98336.02
2019-02-22T10:16:37.026Z,98333.55
2019-02-22T10:19:06.828Z,98336.50
2019-02-22T10:21:36.643Z,98338.81
2019-02-22T10:24:06.513Z,98345.47
2019-02-22T10:26:36.317Z,98341.84
2019-02-22T10:29:06.120Z,98346.55
2019-02-22T10:31:35.897Z,98337.93
2019-02-22T10:34:05.664Z,98350.19
2019-02-22T10:36:44.699Z,98339.17
2019-02-22T10:39:06.947Z,98337.34
2019-02-22T10:41:36.660Z,98338.91
2019-02-22T10:44:17.357Z,98333.16
2019-02-22T10:46:39.181Z,98338.59
2019-02-22T10:49:08.977Z,98336.98
2019-02-22T10:51:38.779Z,98334.19
2019-02-22T10:54:08.599Z,98332.28
2019-02-22T10:56:39.299Z,98332.83
2019-02-22T10:59:09.336Z,98340.21
2019-02-22T11:01:39.132Z,98332.16
2019-02-22T11:04:08.945Z,98334.70
2019-02-22T11:06:38.764Z,98339.36
2019-02-22T11:09:08.651Z,98326.06
2019-02-22T11:11:38.499Z,98334.20
2019-02-22T11:14:08.289Z,98323.38
2019-02-22T11:16:38.208Z,98326.70
2019-02-22T11:19:08.099Z,98326.08
2019-02-22T11:21:37.900Z,98318.17
2019-02-22T11:24:07.692Z,98311.83
2019-02-22T11:26:37.528Z,98315.00
2019-02-22T11:29:07.303Z,98322.45
2019-02-22T11:31:37.044Z,98319.55
2019-02-22T11:34:06.934Z,98320.30
2019-02-22T11:36:36.773Z,98316.80
2019-02-22T11:39:07.391Z,98324.03
2019-02-22T11:41:37.172Z,98328.91
2019-02-22T11:44:06.978Z,98322.98
2019-02-22T11:46:36.872Z,98335.80
2019-02-22T11:49:06.572Z,98324.84
2019-02-22T11:51:36.368Z,98326.95
2019-02-22T11:54:06.191Z,98056.97
2019-02-22T11:56:35.939Z,98322.26
2019-02-22T11:59:05.783Z,98324.05
2019-02-22T12:01:35.592Z,98321.42
2019-02-22T12:04:05.294Z,98327.38
2019-02-22T12:06:35.081Z,98329.40
2019-02-22T12:09:05.801Z,98329.22
2019-02-22T12:11:35.621Z,98327.72
2019-02-22T12:14:05.484Z,98329.17
2019-02-22T12:16:35.313Z,98332.24
2019-02-22T12:19:05.207Z,98334.52
2019-02-22T12:21:35.091Z,98340.08
2019-02-22T12:24:04.914Z,98349.08
2019-02-22T12:26:34.740Z,98336.21
2019-02-22T12:29:04.571Z,98344.16
2019-02-22T12:31:34.388Z,98346.30
2019-02-22T12:34:04.264Z,98356.37
2019-02-22T12:36:34.080Z,98350.52
2019-02-22T12:39:05.179Z,98348.74
2019-02-22T12:41:35.046Z,98355.39
2019-02-22T12:44:04.853Z,98361.81
2019-02-22T12:46:34.692Z,98359.39
2019-02-22T12:49:04.478Z,98360.30
2019-02-22T12:51:34.241Z,98368.22
2019-02-22T12:54:04.134Z,98367.58
2019-02-22T12:59:05.391Z,98377.55
2019-02-22T13:01:35.238Z,98379.50
2019-02-22T13:04:05.075Z,98380.19
2019-02-22T13:06:34.890Z,98376.93
2019-02-22T13:09:06.141Z,98390.34
2019-02-22T13:11:35.966Z,98389.34
2019-02-22T13:14:05.777Z,98388.45
2019-02-22T13:16:35.630Z,98383.81
2019-02-22T13:19:05.455Z,98377.97
2019-02-22T13:21:35.284Z,98375.42
2019-02-22T13:24:05.159Z,98387.80
2019-02-22T13:26:34.968Z,98380.05
2019-02-22T13:29:05.142Z,98385.72
2019-02-22T13:31:36.679Z,98394.55
2019-02-22T13:34:06.501Z,98395.51
2019-02-22T13:36:36.311Z,98413.88
2019-02-22T13:39:06.200Z,98431.13
2019-02-22T13:41:36.060Z,98443.19
2019-02-22T13:44:05.770Z,98424.84
2019-02-22T13:46:35.592Z,98428.02
2019-02-22T13:49:06.197Z,98431.60
2019-02-22T13:51:35.981Z,98434.87
2019-02-22T13:54:05.836Z,98440.98
2019-02-22T13:56:35.647Z,98445.06
2019-02-22T13:59:05.428Z,98442.16
2019-02-22T14:01:35.332Z,98440.41
2019-02-22T14:04:05.274Z,98454.51
2019-02-22T14:06:35.062Z,98450.78
2019-02-22T14:09:05.404Z,98456.13
2019-02-22T14:11:35.244Z,98458.38
2019-02-22T14:14:05.065Z,98458.29
2019-02-22T14:16:34.919Z,98467.16
2019-02-22T14:19:04.737Z,98475.12
2019-02-22T14:21:35.166Z,98476.06
2019-02-22T14:24:05.138Z,98486.19
2019-02-22T14:26:34.937Z,98480.64
2019-02-22T14:29:04.736Z,98486.34
2019-02-22T14:31:34.603Z,98491.27
2019-02-22T14:34:04.414Z,98490.41
2019-02-22T14:36:34.262Z,98503.86
2019-02-22T14:39:05.173Z,98508.45
2019-02-22T14:41:37.343Z,98522.61
2019-02-22T14:44:06.544Z,98525.43
2019-02-22T14:46:36.359Z,98530.13
2019-02-22T14:49:06.154Z,98530.63
2019-02-22T14:51:35.961Z,98546.09
2019-02-22T14:54:05.818Z,98546.84
2019-02-22T14:56:35.707Z,98562.17
2019-02-22T14:59:05.499Z,98566.52
2019-02-22T15:01:35.679Z,98578.44
2019-02-22T15:04:06.204Z,98584.57
2019-02-22T15:06:36.189Z,98587.48
2019-02-22T15:09:06.156Z,98591.07
2019-02-22T15:11:36.023Z,98588.69
2019-02-22T15:14:05.860Z,98593.55
2019-02-22T15:16:52.384Z,98599.78
2019-02-22T15:19:23.726Z,98602.28
2019-02-22T15:21:53.585Z,98618.94
2019-02-22T15:24:23.401Z,98624.65
2019-02-22T15:26:54.137Z,98612.95
2019-02-22T15:29:24.221Z,98614.61
2019-02-22T15:31:54.046Z,98613.83
2019-02-22T15:34:23.808Z,98626.52
2019-02-22T15:36:53.623Z,98626.57
2019-02-22T15:39:25.697Z,98640.56
2019-02-22T15:41:55.581Z,98633.20
2019-02-22T15:44:25.475Z,98634.98
2019-02-22T15:46:55.352Z,98638.88
2019-02-22T15:49:25.346Z,98634.94
2019-02-22T15:51:55.180Z,98645.03
2019-02-22T15:54:24.969Z,98645.48
2019-02-22T15:56:54.878Z,98376.07
2019-02-22T15:59:24.728Z,98654.23
2019-02-22T16:01:55.912Z,98664.20
2019-02-22T16:04:30.338Z,98677.36
2019-02-22T16:07:00.174Z,98663.43
2019-02-22T16:09:30.148Z,98664.79
2019-02-22T16:11:59.985Z,98669.98
2019-02-22T16:14:31.395Z,98666.58
2019-02-22T16:17:01.199Z,98676.63
2019-02-22T16:19:31.027Z,98685.36
2019-02-22T16:22:01.718Z,98686.24
2019-02-22T16:24:31.535Z,98686.28
2019-02-22T16:27:04.099Z,98685.89
2019-02-22T16:29:34.021Z,98699.41
2019-02-22T16:32:04.743Z,98697.73
2019-02-22T16:34:43.069Z,98700.73
2019-02-22T16:37:06.044Z,98698.53
2019-02-22T16:39:35.887Z,98703.37
2019-02-22T16:42:05.715Z,98700.33
2019-02-22T16:44:35.528Z,98706.47
2019-02-22T16:47:05.362Z,98711.70
2019-02-22T16:49:35.184Z,98701.69
2019-02-22T16:52:05.087Z,98701.67
2019-02-22T16:54:34.891Z,98701.69
2019-02-22T16:57:04.627Z,98699.96
2019-02-22T16:59:34.528Z,98704.77
2019-02-22T17:02:06.345Z,98713.09
2019-02-22T17:04:36.121Z,98731.35
2019-02-22T17:07:06.205Z,98725.69
2019-02-22T17:09:36.027Z,98751.43
2019-02-22T17:12:06.846Z,98743.56
2019-02-22T17:14:36.894Z,98744.88
2019-02-22T17:17:06.757Z,98734.39
2019-02-22T17:19:36.534Z,98749.27
2019-02-22T17:22:06.441Z,98752.74
2019-02-22T17:24:36.243Z,98746.22
2019-02-22T17:27:07.494Z,98749.31
2019-02-22T17:29:37.360Z,98763.23
2019-02-22T17:32:07.141Z,98773.23
2019-02-22T17:34:36.924Z,98775.00
2019-02-22T17:37:06.751Z,98786.33
2019-02-22T17:39:36.524Z,98792.89
2019-02-22T17:42:06.517Z,98790.67
2019-02-22T17:44:36.279Z,98801.57
2019-02-22T17:47:06.661Z,98813.80
2019-02-22T17:49:36.635Z,98804.65
2019-02-22T17:52:06.442Z,98815.54
2019-02-22T17:54:36.219Z,98819.45
2019-02-22T17:57:06.018Z,98831.66
2019-02-22T17:59:35.774Z,98830.78
2019-02-22T18:02:05.616Z,98836.00
2019-02-22T18:04:35.473Z,98850.37
2019-02-22T18:07:06.685Z,98844.27
2019-02-22T18:09:36.430Z,98859.09
2019-02-22T18:12:09.270Z,98866.92
2019-02-22T18:14:39.044Z,98866.91
2019-02-22T18:17:08.931Z,98879.53
2019-02-22T18:19:38.779Z,98881.67
2019-02-22T18:22:08.516Z,98886.94
2019-02-22T18:24:38.489Z,98883.41
2019-02-22T18:27:09.877Z,98899.05
2019-02-22T18:29:39.635Z,98892.11
2019-02-22T18:32:09.404Z,98893.41
2019-02-22T18:34:39.167Z,98896.42
2019-02-22T18:37:08.969Z,98904.70
2019-02-22T18:39:39.821Z,98905.55
2019-02-22T18:42:13.124Z,98905.53
2019-02-22T18:44:42.857Z,98911.16
2019-02-22T18:47:19.304Z,98914.67
2019-02-22T18:49:45.499Z,98915.52
2019-02-22T18:52:16.857Z,98922.88
2019-02-22T18:54:46.636Z,98938.49
2019-02-22T18:57:16.378Z,98938.05
2019-02-22T18:59:46.197Z,98945.85
2019-02-22T19:02:15.987Z,98942.81
2019-02-22T19:04:48.066Z,98941.51
2019-02-22T19:07:17.881Z,98963.65
2019-02-22T19:09:47.642Z,98966.69
2019-02-22T19:12:17.376Z,98967.92
2019-02-22T19:14:47.233Z,98969.63
2019-02-22T19:17:18.173Z,98986.56
2019-02-22T19:19:48.071Z,98987.40
2019-02-22T19:22:17.807Z,98996.52
2019-02-22T19:24:48.042Z,99019.13
2019-02-22T19:27:17.825Z,99006.95
2019-02-22T19:29:47.606Z,99023.42
2019-02-22T19:32:17.370Z,99020.33
2019-02-22T19:34:47.139Z,99029.41
2019-02-22T19:37:17.022Z,99032.89
2019-02-22T19:39:46.813Z,99033.20
2019-02-22T19:42:28.294Z,99046.67
2019-02-22T19:44:58.413Z,99049.17
2019-02-22T19:47:28.222Z,99049.64
2019-02-22T19:49:58.018Z,99049.28
2019-02-22T19:52:27.820Z,99073.55
2019-02-22T19:54:57.733Z,99078.20
2019-02-22T19:57:27.578Z,99076.90
2019-02-22T19:59:57.920Z,99084.14
2019-02-22T20:02:27.743Z,99081.48
2019-02-22T20:04:57.869Z,99093.12
2019-02-22T20:07:28.574Z,99095.78
2019-02-22T20:09:58.393Z,99102.67
2019-02-22T20:12:29.221Z,99126.46
2019-02-22T20:14:59.434Z,99115.43
2019-02-22T20:17:29.434Z,99123.54
2019-02-22T20:20:00.314Z,99124.84
2019-02-22T20:22:31.243Z,99137.82
2019-02-22T20:25:01.436Z,99152.08
2019-02-22T20:27:31.219Z,99153.70
2019-02-22T20:30:00.936Z,99157.63
2019-02-22T20:32:30.990Z,99166.23
2019-02-22T20:35:01.825Z,99173.47
2019-02-22T20:37:33.442Z,99176.55
2019-02-22T20:40:03.242Z,99186.91
2019-02-22T20:42:34.850Z,99181.23
2019-02-22T20:45:07.222Z,99187.02
2019-02-22T20:47:36.994Z,99187.35
2019-02-22T20:50:09.573Z,99187.16
2019-02-22T20:52:39.402Z,99181.94
2019-02-22T20:55:12.466Z,99193.30
2019-02-22T20:57:42.192Z,99190.60
2019-02-22T21:00:26.452Z,99197.89
2019-02-22T21:02:57.109Z,99200.94
2019-02-22T21:05:26.923Z,99205.23
2019-02-22T21:07:56.781Z,99214.23
2019-02-22T21:10:27.141Z,99209.57
2019-02-22T21:12:57.122Z,99214.36
2019-02-22T21:15:26.867Z,99226.47
2019-02-22T21:17:56.702Z,99224.09
2019-02-22T21:20:29.431Z,99237.61
2019-02-22T21:23:01.059Z,99237.93
2019-02-22T21:25:31.716Z,99253.66
2019-02-22T21:28:01.542Z,99246.03
2019-02-22T21:30:31.322Z,99256.77
2019-02-22T21:33:01.182Z,99257.49
2019-02-22T21:35:30.982Z,99269.73
2019-02-22T21:38:00.742Z,99270.67
2019-02-22T21:40:30.522Z,99274.76
2019-02-22T21:43:00.311Z,99287.48
2019-02-22T21:45:30.082Z,99289.95
2019-02-22T21:48:00.034Z,99290.06
2019-02-22T21:50:29.954Z,99296.17
2019-02-22T21:52:59.681Z,99298.34
2019-02-22T21:55:29.463Z,99301.50
2019-02-22T21:57:59.257Z,99312.92
2019-02-22T22:00:30.891Z,99313.72
2019-02-22T22:03:00.745Z,99312.03
2019-02-22T22:05:30.594Z,99315.67
2019-02-22T22:08:00.397Z,99315.11
2019-02-22T22:10:30.584Z,99318.80
2019-02-22T22:13:00.354Z,99330.97
2019-02-22T22:15:30.196Z,99335.80
2019-02-22T22:17:59.965Z,99344.77
2019-02-22T22:20:29.717Z,99332.63
2019-02-22T22:22:59.408Z,99338.25
2019-02-22T22:25:29.983Z,99347.27
2019-02-22T22:28:00.189Z,99346.80
2019-02-22T22:30:30.033Z,99352.11
2019-02-22T22:32:59.714Z,99358.00
2019-02-22T22:35:29.510Z,99368.55
2019-02-22T22:38:00.711Z,99369.88
2019-02-22T22:40:30.504Z,99379.63
2019-02-22T22:43:00.292Z,99394.88
2019-02-22T22:45:30.037Z,99380.28
2019-02-22T22:47:59.958Z,99383.33
2019-02-22T22:50:29.756Z,99380.91
2019-02-22T22:52:59.537Z,99379.60
2019-02-22T22:55:29.317Z,99379.98
2019-02-22T22:57:59.099Z,99380.30
2019-02-22T23:00:51.778Z,99386.22
2019-02-22T23:03:21.898Z,99396.26
2019-02-22T23:05:51.722Z,99409.09
2019-02-22T23:08:21.527Z,99414.27
2019-02-22T23:10:51.286Z,99414.69
2019-02-22T23:13:21.105Z,99419.91
2019-02-22T23:15:50.809Z,99462.19
2019-02-22T23:18:20.561Z,99415.45
2019-02-22T23:20:50.280Z,99437.43
2019-02-22T23:23:20.003Z,99443.95
2019-02-22T23:25:49.621Z,99450.89
2019-02-22T23:28:19.424Z,99463.38
2019-02-22T23:30:49.209Z,99457.73
2019-02-22T23:33:19.065Z,99474.45
2019-02-22T23:35:48.868Z,99471.34
2019-02-22T23:38:18.597Z,99474.70
2019-02-22T23:40:50.586Z,99480.47
2019-02-22T23:43:20.386Z,99480.77
2019-02-22T23:45:50.154Z,99483.83
2019-02-22T23:48:19.852Z,99474.03
2019-02-22T23:50:49.584Z,99483.34
2019-02-22T23:53:19.416Z,99483.77
2019-02-22T23:55:49.196Z,99483.14
2019-02-22T23:58:18.959Z,99482.47
